createdAt,value
2023-02-14T06:50:06.236Z,-2.00
2023-02-14T06:53:08.197Z,-1.90
2023-02-14T06:56:10.049Z,-1.50
2023-02-14T06:59:11.894Z,-1.20
2023-02-14T07:02:13.978Z,-0.90
2023-02-14T07:05:19.278Z,-0.70
2023-02-14T07:08:21.912Z,-0.50
2023-02-14T07:11:24.777Z,-0.40
2023-02-14T07:14:27.489Z,-0.30
2023-02-14T07:17:29.804Z,-0.30
2023-02-14T07:20:35.023Z,-0.20
2023-02-14T07:23:38.608Z,-0.20
2023-02-14T07:26:45.852Z,0.30
2023-02-14T07:29:48.874Z,0.80
2023-02-14T07:32:51.402Z,0.90
2023-02-14T07:35:53.819Z,1.70
2023-02-14T07:38:57.033Z,2.30
2023-02-14T07:41:59.647Z,2.80
2023-02-14T07:45:12.539Z,3.00
2023-02-14T07:48:23.156Z,3.30
2023-02-14T07:51:24.946Z,3.20
2023-02-14T07:54:27.171Z,3.70
2023-02-14T07:57:28.982Z,4.60
2023-02-14T08:00:30.792Z,5.30
2023-02-14T08:03:32.695Z,5.10
2023-02-14T08:06:34.700Z,4.30
2023-02-14T08:09:36.827Z,3.80
2023-02-14T08:12:57.720Z,4.10
2023-02-14T08:16:05.749Z,5.10
2023-02-14T08:19:09.109Z,5.40
2023-02-14T08:22:11.436Z,5.30
2023-02-14T08:25:13.548Z,5.50
2023-02-14T08:28:15.883Z,5.70
2023-02-14T08:31:36.256Z,5.90
2023-02-14T08:34:38.579Z,5.60
2023-02-14T08:37:40.548Z,6.20
2023-02-14T08:40:43.414Z,7.60
2023-02-14T08:43:45.653Z,9.00
2023-02-14T08:46:47.587Z,9.60
2023-02-14T08:49:50.349Z,9.90
2023-02-14T08:52:54.984Z,9.90
2023-02-14T08:56:04.775Z,9.80
2023-02-14T08:59:14.693Z,9.60
2023-02-14T09:02:22.929Z,11.60
2023-02-14T09:05:33.156Z,12.40
2023-02-14T09:08:57.589Z,12.90
2023-02-14T09:12:12.158Z,11.40
2023-02-14T09:15:19.901Z,12.00
2023-02-14T09:18:27.290Z,12.50
2023-02-14T09:21:40.527Z,12.50
2023-02-14T09:24:49.310Z,12.50
2023-02-14T09:27:57.615Z,12.30
2023-02-14T09:31:13.254Z,11.30
2023-02-14T09:34:36.999Z,10.20
2023-02-14T09:38:00.447Z,11.10
2023-02-14T09:41:09.966Z,11.50
2023-02-14T09:44:37.582Z,12.60
2023-02-14T09:48:12.531Z,12.00
2023-02-14T09:51:22.636Z,12.10
2023-02-14T09:54:29.590Z,11.90
2023-02-14T09:57:41.403Z,12.40
2023-02-14T10:00:50.303Z,12.20
2023-02-14T10:04:10.371Z,11.90
2023-02-14T10:07:22.320Z,11.10
2023-02-14T10:10:34.366Z,10.90
2023-02-14T10:14:24.723Z,11.20
2023-02-14T10:17:50.159Z,11.90
2023-02-14T10:21:05.801Z,11.10
2023-02-14T10:24:23.516Z,11.10
2023-02-14T10:27:41.408Z,10.90
2023-02-14T10:30:54.921Z,10.90
2023-02-14T10:34:15.019Z,10.80
2023-02-14T10:37:50.725Z,11.10
2023-02-14T10:41:17.163Z,10.30
2023-02-14T10:44:28.622Z,10.60
2023-02-14T10:47:48.014Z,10.20
2023-02-14T10:50:59.234Z,11.10
2023-02-14T10:54:23.376Z,11.40
2023-02-14T10:57:46.292Z,11.10
2023-02-14T11:01:14.883Z,10.90
2023-02-14T11:04:20.082Z,11.40
2023-02-14T11:07:25.145Z,12.00
2023-02-14T11:10:37.035Z,11.20
2023-02-14T11:13:41.514Z,11.10
2023-02-14T11:16:43.822Z,11.50
2023-02-14T11:20:02.762Z,11.90
2023-02-14T11:23:19.228Z,12.00
2023-02-14T11:26:30.557Z,12.20
2023-02-14T11:29:42.027Z,12.60
2023-02-14T11:32:57.388Z,12.30
2023-02-14T11:36:00.976Z,12.20
2023-02-14T11:39:26.103Z,12.10
2023-02-14T11:42:37.074Z,12.00
2023-02-14T11:45:41.432Z,11.90
2023-02-14T11:49:06.319Z,11.60
2023-02-14T11:52:10.600Z,11.60
2023-02-14T11:55:32.334Z,12.40
2023-02-14T11:58:47.613Z,13.10
2023-02-14T12:01:49.636Z,11.10
2023-02-14T12:06:18.950Z,9.80
2023-02-14T12:09:23.687Z,9.60
2023-02-14T12:12:26.559Z,9.10
2023-02-14T12:15:36.992Z,8.90
2023-02-14T12:19:02.061Z,8.90
2023-02-14T12:22:06.280Z,8.60
2023-02-14T12:25:16.483Z,8.80
2023-02-14T12:28:30.842Z,8.90
2023-02-14T12:31:32.799Z,8.90
2023-02-14T12:34:36.340Z,8.90
2023-02-14T12:38:07.279Z,8.90
2023-02-14T12:41:45.878Z,8.80
2023-02-14T12:45:09.553Z,9.00
2023-02-14T12:48:37.517Z,9.10
2023-02-14T12:52:10.356Z,8.80
2023-02-14T12:55:22.923Z,8.60
2023-02-14T12:59:00.789Z,8.60
2023-02-14T13:02:05.951Z,8.50
2023-02-14T13:05:25.820Z,8.70
2023-02-14T13:08:54.633Z,8.90
2023-02-14T13:12:21.375Z,9.00
2023-02-14T13:15:53.062Z,9.10
2023-02-14T13:19:16.350Z,9.10
2023-02-14T13:22:21.952Z,8.90
2023-02-14T13:25:31.805Z,9.00
2023-02-14T13:28:36.028Z,9.10
2023-02-14T13:31:39.462Z,8.80
2023-02-14T13:34:48.986Z,8.90
2023-02-14T13:37:57.784Z,9.00
2023-02-14T13:41:02.792Z,9.00
2023-02-14T13:44:05.483Z,8.90
2023-02-14T13:47:08.610Z,8.90
2023-02-14T13:50:21.299Z,8.90
2023-02-14T13:53:31.908Z,8.90
2023-02-14T13:56:35.649Z,9.00
2023-02-14T13:59:37.609Z,9.10
2023-02-14T14:02:46.501Z,9.10
2023-02-14T14:06:02.174Z,9.10
2023-02-14T14:09:04.289Z,9.10
2023-02-14T14:12:28.787Z,9.00
2023-02-14T14:15:30.595Z,9.10
2023-02-14T14:18:38.594Z,9.10
2023-02-14T14:33:29.127Z,9.00
2023-02-14T14:38:07.241Z,9.10
2023-02-14T14:42:46.232Z,9.10
2023-02-14T14:47:25.149Z,9.00
2023-02-14T15:27:47.192Z,8.60
2023-02-14T15:30:59.666Z,8.50
2023-02-14T15:34:07.609Z,8.60
2023-02-14T15:41:33.773Z,8.40
2023-02-14T15:46:03.262Z,8.40
2023-02-14T15:49:15.512Z,8.30
2023-02-14T15:53:54.293Z,8.30
2023-02-14T15:56:56.723Z,8.20
2023-02-14T16:01:34.365Z,8.10
2023-02-14T16:04:36.205Z,7.90
2023-02-14T16:07:37.889Z,7.80
2023-02-14T16:10:40.070Z,7.70
2023-02-14T16:13:47.718Z,7.80
2023-02-14T16:17:04.614Z,7.70
2023-02-14T16:20:36.961Z,7.70
2023-02-14T16:23:39.163Z,7.50
2023-02-14T16:26:43.449Z,7.30
2023-02-14T16:29:45.546Z,7.30
2023-02-14T16:32:52.539Z,7.20
2023-02-14T16:35:55.025Z,7.10
2023-02-14T16:38:57.712Z,7.00
2023-02-14T16:41:59.414Z,6.90
2023-02-14T16:45:01.082Z,6.90
2023-02-14T16:48:03.099Z,6.80
2023-02-14T16:51:05.011Z,6.70
2023-02-14T16:54:11.508Z,6.70
2023-02-14T16:57:20.334Z,6.60
